sensor_id;sensor_type;location;lat;lon;timestamp;temperature;humidity
69031;DHT22;56083;48.774;8.942;2022-08-21T00:00:23;13.30;99.90
69031;DHT22;56083;48.774;8.942;2022-08-21T00:03:10;13.40;99.90
69031;DHT22;56083;48.774;8.942;2022-08-21T00:05:39;13.30;99.90
69031;DHT22;56083;48.774;8.942;2022-08-21T00:08:05;13.40;99.90
69031;DHT22;56083;48.774;8.942;2022-08-21T00:10:32;13.30;99.90
69031;DHT22;56083;48.774;8.942;2022-08-21T00:12:57;13.30;99.90
69031;DHT22;56083;48.774;8.942;2022-08-21T00:15:26;13.30;99.90
69031;DHT22;56083;48.774;8.942;2022-08-21T00:17:53;13.30;99.90
69031;DHT22;56083;48.774;8.942;2022-08-21T00:20:19;13.20;99.90
69031;DHT22;56083;48.774;8.942;2022-08-21T00:22:46;13.20;99.90
69031;DHT22;56083;48.774;8.942;2022-08-21T00:25:12;13.20;99.90
69031;DHT22;56083;48.774;8.942;2022-08-21T00:27:40;13.10;99.90
69031;DHT22;56083;48.774;8.942;2022-08-21T00:30:09;13.10;99.90
69031;DHT22;56083;48.774;8.942;2022-08-21T00:32:37;13.00;99.90
69031;DHT22;56083;48.774;8.942;2022-08-21T00:35:04;13.00;99.90
69031;DHT22;56083;48.774;8.942;2022-08-21T00:37:30;13.00;99.90
69031;DHT22;56083;48.774;8.942;2022-08-21T00:39:56;13.00;99.90
69031;DHT22;56083;48.774;8.942;2022-08-21T00:42:21;12.90;99.90
69031;DHT22;56083;48.774;8.942;2022-08-21T00:44:49;12.80;99.90
69031;DHT22;56083;48.774;8.942;2022-08-21T00:47:16;12.80;99.90
69031;DHT22;56083;48.774;8.942;2022-08-21T00:49:42;12.70;99.90
69031;DHT22;56083;48.774;8.942;2022-08-21T00:52:12;12.60;99.90
69031;DHT22;56083;48.774;8.942;2022-08-21T00:54:39;12.60;99.90
69031;DHT22;56083;48.774;8.942;2022-08-21T00:57:14;12.50;99.90
69031;DHT22;56083;48.774;8.942;2022-08-21T00:59:44;12.50;99.90
69031;DHT22;56083;48.774;8.942;2022-08-21T01:02:11;12.50;99.90
69031;DHT22;56083;48.774;8.942;2022-08-21T01:04:38;12.50;99.90
69031;DHT22;56083;48.774;8.942;2022-08-21T01:07:04;12.50;99.90
69031;DHT22;56083;48.774;8.942;2022-08-21T01:09:30;12.40;99.90
69031;DHT22;56083;48.774;8.942;2022-08-21T01:11:56;12.40;99.90
69031;DHT22;56083;48.774;8.942;2022-08-21T01:14:22;12.40;99.90
69031;DHT22;56083;48.774;8.942;2022-08-21T01:16:50;12.30;99.90
69031;DHT22;56083;48.774;8.942;2022-08-21T01:19:18;12.30;99.90
69031;DHT22;56083;48.774;8.942;2022-08-21T01:21:45;12.20;99.90
69031;DHT22;56083;48.774;8.942;2022-08-21T01:24:12;12.20;99.90
69031;DHT22;56083;48.774;8.942;2022-08-21T01:26:39;12.20;99.90
69031;DHT22;56083;48.774;8.942;2022-08-21T01:31:33;12.20;99.90
69031;DHT22;56083;48.774;8.942;2022-08-21T01:33:59;12.10;99.90
69031;DHT22;56083;48.774;8.942;2022-08-21T01:36:26;12.10;99.90
69031;DHT22;56083;48.774;8.942;2022-08-21T01:38:52;12.10;99.90
69031;DHT22;56083;48.774;8.942;2022-08-21T01:41:18;12.00;99.90
69031;DHT22;56083;48.774;8.942;2022-08-21T01:43:44;12.00;99.90
69031;DHT22;56083;48.774;8.942;2022-08-21T01:46:11;12.00;99.90
69031;DHT22;56083;48.774;8.942;2022-08-21T01:48:37;12.00;99.90
69031;DHT22;56083;48.774;8.942;2022-08-21T01:51:04;12.00;99.90
69031;DHT22;56083;48.774;8.942;2022-08-21T01:53:31;12.00;99.90
69031;DHT22;56083;48.774;8.942;2022-08-21T01:55:57;12.00;99.90
69031;DHT22;56083;48.774;8.942;2022-08-21T01:58:22;12.00;99.90
69031;DHT22;56083;48.774;8.942;2022-08-21T02:00:48;11.90;99.90
69031;DHT22;56083;48.774;8.942;2022-08-21T02:03:14;11.90;99.90
69031;DHT22;56083;48.774;8.942;2022-08-21T02:05:40;11.90;99.90
69031;DHT22;56083;48.774;8.942;2022-08-21T02:08:06;11.90;99.90
69031;DHT22;56083;48.774;8.942;2022-08-21T02:10:32;11.90;99.90
69031;DHT22;56083;48.774;8.942;2022-08-21T02:12:59;11.90;99.90
69031;DHT22;56083;48.774;8.942;2022-08-21T02:15:26;11.90;99.90
69031;DHT22;56083;48.774;8.942;2022-08-21T02:17:54;11.90;99.90
69031;DHT22;56083;48.774;8.942;2022-08-21T02:20:32;11.90;99.90
69031;DHT22;56083;48.774;8.942;2022-08-21T02:23:00;11.90;99.90
69031;DHT22;56083;48.774;8.942;2022-08-21T02:25:27;11.90;99.90
69031;DHT22;56083;48.774;8.942;2022-08-21T02:27:53;11.90;99.90
69031;DHT22;56083;48.774;8.942;2022-08-21T02:30:26;11.90;99.90
69031;DHT22;56083;48.774;8.942;2022-08-21T02:32:52;11.90;99.90
69031;DHT22;56083;48.774;8.942;2022-08-21T02:35:18;11.80;99.90
69031;DHT22;56083;48.774;8.942;2022-08-21T02:37:47;11.80;99.90
69031;DHT22;56083;48.774;8.942;2022-08-21T02:40:15;11.70;99.90
69031;DHT22;56083;48.774;8.942;2022-08-21T02:42:41;11.60;99.90
69031;DHT22;56083;48.774;8.942;2022-08-21T02:45:07;11.60;99.90
69031;DHT22;56083;48.774;8.942;2022-08-21T02:47:33;11.60;99.90
69031;DHT22;56083;48.774;8.942;2022-08-21T02:49:58;11.60;99.90
69031;DHT22;56083;48.774;8.942;2022-08-21T02:52:24;11.60;99.90
69031;DHT22;56083;48.774;8.942;2022-08-21T02:54:50;11.60;99.90
69031;DHT22;56083;48.774;8.942;2022-08-21T02:57:15;11.60;99.90
69031;DHT22;56083;48.774;8.942;2022-08-21T02:59:41;11.60;99.90
69031;DHT22;56083;48.774;8.942;2022-08-21T03:02:07;11.60;99.90
69031;DHT22;56083;48.774;8.942;2022-08-21T03:04:32;11.50;99.90
69031;DHT22;56083;48.774;8.942;2022-08-21T03:06:58;11.50;99.90
69031;DHT22;56083;48.774;8.942;2022-08-21T03:09:24;11.40;99.90
69031;DHT22;56083;48.774;8.942;2022-08-21T03:11:50;11.50;99.90
69031;DHT22;56083;48.774;8.942;2022-08-21T03:14:17;11.40;99.90
69031;DHT22;56083;48.774;8.942;2022-08-21T03:16:43;11.30;99.90
69031;DHT22;56083;48.774;8.942;2022-08-21T03:19:09;11.40;99.90
69031;DHT22;56083;48.774;8.942;2022-08-21T03:21:34;11.30;99.90
69031;DHT22;56083;48.774;8.942;2022-08-21T03:24:00;11.30;99.90
69031;DHT22;56083;48.774;8.942;2022-08-21T03:26:26;11.30;99.90
69031;DHT22;56083;48.774;8.942;2022-08-21T03:28:52;11.20;99.90
69031;DHT22;56083;48.774;8.942;2022-08-21T03:31:17;11.20;99.90
69031;DHT22;56083;48.774;8.942;2022-08-21T03:33:43;11.20;99.90
69031;DHT22;56083;48.774;8.942;2022-08-21T03:36:10;11.20;99.90
69031;DHT22;56083;48.774;8.942;2022-08-21T03:38:37;11.10;99.90
69031;DHT22;56083;48.774;8.942;2022-08-21T03:41:07;11.00;99.90
69031;DHT22;56083;48.774;8.942;2022-08-21T03:43:33;11.00;99.90
69031;DHT22;56083;48.774;8.942;2022-08-21T03:46:03;10.90;99.90
69031;DHT22;56083;48.774;8.942;2022-08-21T03:48:29;10.90;99.90
69031;DHT22;56083;48.774;8.942;2022-08-21T03:50:55;10.80;99.90
69031;DHT22;56083;48.774;8.942;2022-08-21T03:53:22;10.80;99.90
69031;DHT22;56083;48.774;8.942;2022-08-21T03:55:50;10.80;99.90
69031;DHT22;56083;48.774;8.942;2022-08-21T03:58:18;10.70;99.90
69031;DHT22;56083;48.774;8.942;2022-08-21T04:00:45;10.70;99.90
69031;DHT22;56083;48.774;8.942;2022-08-21T04:03:12;10.70;99.90
69031;DHT22;56083;48.774;8.942;2022-08-21T04:05:37;10.70;99.90
69031;DHT22;56083;48.774;8.942;2022-08-21T04:08:05;10.70;99.90
69031;DHT22;56083;48.774;8.942;2022-08-21T04:10:34;10.70;99.90
69031;DHT22;56083;48.774;8.942;2022-08-21T04:13:00;10.70;99.90
69031;DHT22;56083;48.774;8.942;2022-08-21T04:15:26;10.70;99.90
69031;DHT22;56083;48.774;8.942;2022-08-21T04:17:52;10.70;99.90
69031;DHT22;56083;48.774;8.942;2022-08-21T04:20:19;10.70;99.90
69031;DHT22;56083;48.774;8.942;2022-08-21T04:22:47;10.80;99.90
69031;DHT22;56083;48.774;8.942;2022-08-21T04:25:14;10.80;99.90
69031;DHT22;56083;48.774;8.942;2022-08-21T04:27:40;10.80;99.90
69031;DHT22;56083;48.774;8.942;2022-08-21T04:30:06;10.70;99.90
69031;DHT22;56083;48.774;8.942;2022-08-21T04:32:32;10.70;99.90
69031;DHT22;56083;48.774;8.942;2022-08-21T04:35:04;10.80;99.90
69031;DHT22;56083;48.774;8.942;2022-08-21T04:37:30;10.80;99.90
69031;DHT22;56083;48.774;8.942;2022-08-21T04:39:56;10.80;99.90
69031;DHT22;56083;48.774;8.942;2022-08-21T04:42:26;10.80;99.90
69031;DHT22;56083;48.774;8.942;2022-08-21T04:44:52;10.80;99.90
69031;DHT22;56083;48.774;8.942;2022-08-21T04:47:17;10.90;99.90
69031;DHT22;56083;48.774;8.942;2022-08-21T04:49:44;10.90;99.90
69031;DHT22;56083;48.774;8.942;2022-08-21T04:52:11;11.00;99.90
69031;DHT22;56083;48.774;8.942;2022-08-21T04:54:39;11.00;99.90
69031;DHT22;56083;48.774;8.942;2022-08-21T04:57:07;11.10;99.90
69031;DHT22;56083;48.774;8.942;2022-08-21T04:59:46;11.10;99.90
69031;DHT22;56083;48.774;8.942;2022-08-21T05:02:13;11.00;99.90
69031;DHT22;56083;48.774;8.942;2022-08-21T05:04:45;11.10;99.90
69031;DHT22;56083;48.774;8.942;2022-08-21T05:07:15;11.10;99.90
69031;DHT22;56083;48.774;8.942;2022-08-21T05:09:41;11.10;99.90
69031;DHT22;56083;48.774;8.942;2022-08-21T05:12:07;11.20;99.90
69031;DHT22;56083;48.774;8.942;2022-08-21T05:14:33;11.30;99.90
69031;DHT22;56083;48.774;8.942;2022-08-21T05:16:59;11.50;99.90
69031;DHT22;56083;48.774;8.942;2022-08-21T05:19:24;11.50;99.90
69031;DHT22;56083;48.774;8.942;2022-08-21T05:21:51;11.60;99.90
69031;DHT22;56083;48.774;8.942;2022-08-21T05:24:17;11.80;99.90
69031;DHT22;56083;48.774;8.942;2022-08-21T05:26:43;11.80;99.90
69031;DHT22;56083;48.774;8.942;2022-08-21T05:29:10;11.90;99.90
69031;DHT22;56083;48.774;8.942;2022-08-21T05:31:37;12.00;99.90
69031;DHT22;56083;48.774;8.942;2022-08-21T05:34:03;12.10;99.90
69031;DHT22;56083;48.774;8.942;2022-08-21T05:36:29;12.20;99.90
69031;DHT22;56083;48.774;8.942;2022-08-21T05:38:55;12.20;99.90
69031;DHT22;56083;48.774;8.942;2022-08-21T05:41:21;12.30;99.90
69031;DHT22;56083;48.774;8.942;2022-08-21T05:43:46;12.50;99.90
69031;DHT22;56083;48.774;8.942;2022-08-21T05:46:12;12.60;99.90
69031;DHT22;56083;48.774;8.942;2022-08-21T05:48:38;12.80;99.90
69031;DHT22;56083;48.774;8.942;2022-08-21T05:51:12;13.00;99.90
69031;DHT22;56083;48.774;8.942;2022-08-21T05:53:39;13.10;99.90
69031;DHT22;56083;48.774;8.942;2022-08-21T05:56:05;13.30;99.90
69031;DHT22;56083;48.774;8.942;2022-08-21T05:58:33;13.40;99.90
69031;DHT22;56083;48.774;8.942;2022-08-21T06:01:00;13.50;99.90
69031;DHT22;56083;48.774;8.942;2022-08-21T06:03:29;13.60;99.90
69031;DHT22;56083;48.774;8.942;2022-08-21T06:05:55;13.70;99.90
69031;DHT22;56083;48.774;8.942;2022-08-21T06:08:24;13.80;99.90
69031;DHT22;56083;48.774;8.942;2022-08-21T06:10:51;13.90;99.90
69031;DHT22;56083;48.774;8.942;2022-08-21T06:13:18;14.10;99.90
69031;DHT22;56083;48.774;8.942;2022-08-21T06:15:44;14.30;99.90
69031;DHT22;56083;48.774;8.942;2022-08-21T06:18:10;14.50;99.90
69031;DHT22;56083;48.774;8.942;2022-08-21T06:20:36;14.60;99.90
69031;DHT22;56083;48.774;8.942;2022-08-21T06:23:02;14.90;99.90
69031;DHT22;56083;48.774;8.942;2022-08-21T06:25:27;15.00;99.90
69031;DHT22;56083;48.774;8.942;2022-08-21T06:28:03;15.20;99.90
69031;DHT22;56083;48.774;8.942;2022-08-21T06:30:29;15.30;99.90
69031;DHT22;56083;48.774;8.942;2022-08-21T06:32:55;15.50;99.90
69031;DHT22;56083;48.774;8.942;2022-08-21T06:35:21;15.60;99.90
69031;DHT22;56083;48.774;8.942;2022-08-21T06:37:46;15.70;99.90
69031;DHT22;56083;48.774;8.942;2022-08-21T06:40:12;15.90;99.90
69031;DHT22;56083;48.774;8.942;2022-08-21T06:42:38;16.30;99.90
69031;DHT22;56083;48.774;8.942;2022-08-21T06:45:05;16.50;99.90
69031;DHT22;56083;48.774;8.942;2022-08-21T06:47:30;16.90;99.90
69031;DHT22;56083;48.774;8.942;2022-08-21T06:49:56;17.30;99.90
69031;DHT22;56083;48.774;8.942;2022-08-21T06:52:22;17.70;99.90
69031;DHT22;56083;48.774;8.942;2022-08-21T06:54:48;18.40;99.90
69031;DHT22;56083;48.774;8.942;2022-08-21T06:57:13;19.30;99.90
69031;DHT22;56083;48.774;8.942;2022-08-21T06:59:39;20.20;99.90
69031;DHT22;56083;48.774;8.942;2022-08-21T07:02:04;21.10;99.90
69031;DHT22;56083;48.774;8.942;2022-08-21T07:04:30;21.50;99.90
69031;DHT22;56083;48.774;8.942;2022-08-21T07:06:56;22.10;99.90
69031;DHT22;56083;48.774;8.942;2022-08-21T07:09:21;22.90;99.90
69031;DHT22;56083;48.774;8.942;2022-08-21T07:11:51;23.50;99.90
69031;DHT22;56083;48.774;8.942;2022-08-21T07:14:17;23.80;99.90
69031;DHT22;56083;48.774;8.942;2022-08-21T07:16:43;24.00;99.90
69031;DHT22;56083;48.774;8.942;2022-08-21T07:19:09;24.30;99.90
69031;DHT22;56083;48.774;8.942;2022-08-21T07:21:34;24.60;99.90
69031;DHT22;56083;48.774;8.942;2022-08-21T07:24:00;24.70;99.90
69031;DHT22;56083;48.774;8.942;2022-08-21T07:26:25;25.20;99.90
69031;DHT22;56083;48.774;8.942;2022-08-21T07:28:52;25.70;99.90
69031;DHT22;56083;48.774;8.942;2022-08-21T07:31:20;26.20;99.90
69031;DHT22;56083;48.774;8.942;2022-08-21T07:33:47;26.70;99.90
69031;DHT22;56083;48.774;8.942;2022-08-21T07:36:13;27.40;99.90
69031;DHT22;56083;48.774;8.942;2022-08-21T07:38:38;27.70;99.90
69031;DHT22;56083;48.774;8.942;2022-08-21T07:41:16;27.90;99.90
69031;DHT22;56083;48.774;8.942;2022-08-21T07:43:42;27.90;98.70
69031;DHT22;56083;48.774;8.942;2022-08-21T07:46:09;28.30;96.00
69031;DHT22;56083;48.774;8.942;2022-08-21T07:48:34;28.90;95.70
69031;DHT22;56083;48.774;8.942;2022-08-21T07:51:02;28.50;93.70
69031;DHT22;56083;48.774;8.942;2022-08-21T07:53:30;29.30;93.80
69031;DHT22;56083;48.774;8.942;2022-08-21T07:55:59;29.70;91.70
69031;DHT22;56083;48.774;8.942;2022-08-21T07:58:25;29.40;90.50
69031;DHT22;56083;48.774;8.942;2022-08-21T08:00:51;29.90;90.10
69031;DHT22;56083;48.774;8.942;2022-08-21T08:03:17;30.00;83.40
69031;DHT22;56083;48.774;8.942;2022-08-21T08:05:42;30.40;80.40
69031;DHT22;56083;48.774;8.942;2022-08-21T08:08:08;30.80;80.00
69031;DHT22;56083;48.774;8.942;2022-08-21T08:10:34;31.60;76.50
69031;DHT22;56083;48.774;8.942;2022-08-21T08:13:00;32.20;71.70
69031;DHT22;56083;48.774;8.942;2022-08-21T08:15:27;32.40;70.10
69031;DHT22;56083;48.774;8.942;2022-08-21T08:17:53;32.50;66.80
69031;DHT22;56083;48.774;8.942;2022-08-21T08:20:20;32.50;59.40
69031;DHT22;56083;48.774;8.942;2022-08-21T08:22:48;31.10;63.00
69031;DHT22;56083;48.774;8.942;2022-08-21T08:25:15;31.40;62.10
69031;DHT22;56083;48.774;8.942;2022-08-21T08:27:42;31.20;62.10
69031;DHT22;56083;48.774;8.942;2022-08-21T08:30:10;31.90;60.80
69031;DHT22;56083;48.774;8.942;2022-08-21T08:32:37;32.60;59.00
69031;DHT22;56083;48.774;8.942;2022-08-21T08:35:04;32.90;59.40
69031;DHT22;56083;48.774;8.942;2022-08-21T08:37:30;33.30;58.90
69031;DHT22;56083;48.774;8.942;2022-08-21T08:39:57;34.30;55.10
69031;DHT22;56083;48.774;8.942;2022-08-21T08:42:29;35.20;53.60
69031;DHT22;56083;48.774;8.942;2022-08-21T08:45:02;35.50;52.00
69031;DHT22;56083;48.774;8.942;2022-08-21T08:47:30;35.40;49.10
69031;DHT22;56083;48.774;8.942;2022-08-21T08:50:19;35.00;49.30
69031;DHT22;56083;48.774;8.942;2022-08-21T08:54:08;35.00;49.20
69031;DHT22;56083;48.774;8.942;2022-08-21T08:56:04;34.80;49.90
69031;DHT22;56083;48.774;8.942;2022-08-21T08:58:33;34.60;49.40
69031;DHT22;56083;48.774;8.942;2022-08-21T09:01:06;34.70;49.60
69031;DHT22;56083;48.774;8.942;2022-08-21T09:03:34;35.60;49.50
69031;DHT22;56083;48.774;8.942;2022-08-21T09:06:20;36.20;49.10
69031;DHT22;56083;48.774;8.942;2022-08-21T09:18:09;36.40;47.00
69031;DHT22;56083;48.774;8.942;2022-08-21T09:20:56;37.10;45.40
69031;DHT22;56083;48.774;8.942;2022-08-21T09:23:43;36.40;45.60
69031;DHT22;56083;48.774;8.942;2022-08-21T09:26:21;35.80;45.80
69031;DHT22;56083;48.774;8.942;2022-08-21T09:28:56;34.70;46.20
69031;DHT22;56083;48.774;8.942;2022-08-21T09:31:34;35.80;45.40
69031;DHT22;56083;48.774;8.942;2022-08-21T09:34:10;35.80;45.30
69031;DHT22;56083;48.774;8.942;2022-08-21T09:36:44;35.40;45.50
69031;DHT22;56083;48.774;8.942;2022-08-21T09:39:12;37.00;45.10
69031;DHT22;56083;48.774;8.942;2022-08-21T09:41:39;37.90;41.60
69031;DHT22;56083;48.774;8.942;2022-08-21T09:44:07;38.70;42.20
69031;DHT22;56083;48.774;8.942;2022-08-21T09:46:33;38.40;40.50
69031;DHT22;56083;48.774;8.942;2022-08-21T09:49:00;38.10;40.20
69031;DHT22;56083;48.774;8.942;2022-08-21T09:51:30;39.20;39.00
69031;DHT22;56083;48.774;8.942;2022-08-21T09:56:34;39.60;38.10
69031;DHT22;56083;48.774;8.942;2022-08-21T09:59:33;39.50;37.80
69031;DHT22;56083;48.774;8.942;2022-08-21T10:02:29;39.20;37.80
69031;DHT22;56083;48.774;8.942;2022-08-21T10:04:57;38.50;38.40
69031;DHT22;56083;48.774;8.942;2022-08-21T10:07:25;38.40;38.20
69031;DHT22;56083;48.774;8.942;2022-08-21T10:10:06;38.30;38.90
69031;DHT22;56083;48.774;8.942;2022-08-21T10:18:28;36.80;40.60
69031;DHT22;56083;48.774;8.942;2022-08-21T10:21:22;37.60;39.70
69031;DHT22;56083;48.774;8.942;2022-08-21T10:24:13;37.80;39.50
69031;DHT22;56083;48.774;8.942;2022-08-21T10:32:08;37.60;40.00
69031;DHT22;56083;48.774;8.942;2022-08-21T10:42:52;39.00;39.00
69031;DHT22;56083;48.774;8.942;2022-08-21T10:45:44;39.00;39.70
69031;DHT22;56083;48.774;8.942;2022-08-21T10:48:24;40.90;37.80
69031;DHT22;56083;48.774;8.942;2022-08-21T10:51:33;42.20;35.40
69031;DHT22;56083;48.774;8.942;2022-08-21T10:54:17;43.10;33.50
69031;DHT22;56083;48.774;8.942;2022-08-21T10:56:45;42.90;33.90
69031;DHT22;56083;48.774;8.942;2022-08-21T11:02:17;43.60;32.80
69031;DHT22;56083;48.774;8.942;2022-08-21T11:07:55;43.80;30.80
69031;DHT22;56083;48.774;8.942;2022-08-21T11:10:40;42.80;31.70
69031;DHT22;56083;48.774;8.942;2022-08-21T11:16:12;41.40;33.40
69031;DHT22;56083;48.774;8.942;2022-08-21T11:18:51;41.10;33.10
69031;DHT22;56083;48.774;8.942;2022-08-21T11:24:34;43.00;33.30
69031;DHT22;56083;48.774;8.942;2022-08-21T11:27:22;42.70;33.60
69031;DHT22;56083;48.774;8.942;2022-08-21T11:29:54;43.30;32.80
69031;DHT22;56083;48.774;8.942;2022-08-21T11:32:48;43.70;32.70
69031;DHT22;56083;48.774;8.942;2022-08-21T11:43:34;42.80;31.40
69031;DHT22;56083;48.774;8.942;2022-08-21T11:46:28;42.40;32.50
69031;DHT22;56083;48.774;8.942;2022-08-21T11:51:48;41.00;32.90
69031;DHT22;56083;48.774;8.942;2022-08-21T11:59:48;42.10;32.60
69031;DHT22;56083;48.774;8.942;2022-08-21T12:02:22;42.70;32.10
69031;DHT22;56083;48.774;8.942;2022-08-21T12:05:02;43.60;31.10
69031;DHT22;56083;48.774;8.942;2022-08-21T12:07:41;44.70;30.10
69031;DHT22;56083;48.774;8.942;2022-08-21T12:10:11;44.90;29.90
69031;DHT22;56083;48.774;8.942;2022-08-21T12:12:39;44.00;29.60
69031;DHT22;56083;48.774;8.942;2022-08-21T12:17:58;42.60;30.00
69031;DHT22;56083;48.774;8.942;2022-08-21T12:20:45;42.40;30.40
69031;DHT22;56083;48.774;8.942;2022-08-21T12:23:44;43.30;31.30
69031;DHT22;56083;48.774;8.942;2022-08-21T12:28:43;41.50;30.60
69031;DHT22;56083;48.774;8.942;2022-08-21T12:31:23;42.10;31.60
69031;DHT22;56083;48.774;8.942;2022-08-21T12:34:02;43.30;31.70
69031;DHT22;56083;48.774;8.942;2022-08-21T12:37:00;44.40;31.30
69031;DHT22;56083;48.774;8.942;2022-08-21T12:39:29;45.40;30.00
69031;DHT22;56083;48.774;8.942;2022-08-21T12:42:06;45.50;29.80
69031;DHT22;56083;48.774;8.942;2022-08-21T12:47:51;43.80;29.80
69031;DHT22;56083;48.774;8.942;2022-08-21T12:50:51;41.40;32.00
69031;DHT22;56083;48.774;8.942;2022-08-21T12:53:42;39.30;33.80
69031;DHT22;56083;48.774;8.942;2022-08-21T12:56:12;36.80;36.20
69031;DHT22;56083;48.774;8.942;2022-08-21T12:58:46;35.60;38.10
69031;DHT22;56083;48.774;8.942;2022-08-21T13:01:20;34.70;39.80
69031;DHT22;56083;48.774;8.942;2022-08-21T13:03:50;35.50;38.90
69031;DHT22;56083;48.774;8.942;2022-08-21T13:06:19;34.90;39.10
69031;DHT22;56083;48.774;8.942;2022-08-21T13:08:47;34.10;39.50
69031;DHT22;56083;48.774;8.942;2022-08-21T13:11:16;33.60;40.50
69031;DHT22;56083;48.774;8.942;2022-08-21T13:13:49;32.80;41.60
69031;DHT22;56083;48.774;8.942;2022-08-21T13:16:20;32.60;42.30
69031;DHT22;56083;48.774;8.942;2022-08-21T13:19:16;33.50;40.90
69031;DHT22;56083;48.774;8.942;2022-08-21T13:21:43;33.10;41.50
69031;DHT22;56083;48.774;8.942;2022-08-21T13:24:19;32.60;41.50
69031;DHT22;56083;48.774;8.942;2022-08-21T13:26:46;31.50;42.40
69031;DHT22;56083;48.774;8.942;2022-08-21T13:29:16;32.40;43.40
69031;DHT22;56083;48.774;8.942;2022-08-21T13:31:58;34.70;40.70
69031;DHT22;56083;48.774;8.942;2022-08-21T13:34:31;37.20;37.10
69031;DHT22;56083;48.774;8.942;2022-08-21T13:37:03;38.20;35.50
69031;DHT22;56083;48.774;8.942;2022-08-21T13:39:29;39.10;34.90
69031;DHT22;56083;48.774;8.942;2022-08-21T13:41:57;38.80;35.10
69031;DHT22;56083;48.774;8.942;2022-08-21T13:44:36;37.40;35.60
69031;DHT22;56083;48.774;8.942;2022-08-21T13:47:04;37.00;36.50
69031;DHT22;56083;48.774;8.942;2022-08-21T13:49:38;37.00;36.60
69031;DHT22;56083;48.774;8.942;2022-08-21T13:52:12;37.50;36.40
69031;DHT22;56083;48.774;8.942;2022-08-21T13:54:41;37.70;35.70
69031;DHT22;56083;48.774;8.942;2022-08-21T13:57:25;39.00;35.40
69031;DHT22;56083;48.774;8.942;2022-08-21T13:59:50;38.40;34.90
69031;DHT22;56083;48.774;8.942;2022-08-21T14:02:20;38.20;35.10
69031;DHT22;56083;48.774;8.942;2022-08-21T14:07:25;37.90;36.60
69031;DHT22;56083;48.774;8.942;2022-08-21T14:09:52;36.30;37.20
69031;DHT22;56083;48.774;8.942;2022-08-21T14:12:42;35.50;38.80
69031;DHT22;56083;48.774;8.942;2022-08-21T14:15:09;35.90;37.70
69031;DHT22;56083;48.774;8.942;2022-08-21T14:17:38;34.30;38.40
69031;DHT22;56083;48.774;8.942;2022-08-21T14:20:25;33.50;40.80
69031;DHT22;56083;48.774;8.942;2022-08-21T14:22:51;32.40;41.10
69031;DHT22;56083;48.774;8.942;2022-08-21T14:27:53;32.90;41.50
69031;DHT22;56083;48.774;8.942;2022-08-21T14:30:40;34.20;40.00
69031;DHT22;56083;48.774;8.942;2022-08-21T14:33:25;35.60;38.10
69031;DHT22;56083;48.774;8.942;2022-08-21T14:35:51;36.80;36.90
69031;DHT22;56083;48.774;8.942;2022-08-21T14:38:19;37.80;35.10
69031;DHT22;56083;48.774;8.942;2022-08-21T14:40:49;38.60;35.40
69031;DHT22;56083;48.774;8.942;2022-08-21T14:43:15;39.40;33.10
69031;DHT22;56083;48.774;8.942;2022-08-21T14:45:41;40.00;34.10
69031;DHT22;56083;48.774;8.942;2022-08-21T14:48:09;39.20;33.60
69031;DHT22;56083;48.774;8.942;2022-08-21T14:50:35;37.40;34.90
69031;DHT22;56083;48.774;8.942;2022-08-21T14:53:01;37.20;35.10
69031;DHT22;56083;48.774;8.942;2022-08-21T14:55:27;37.50;35.90
69031;DHT22;56083;48.774;8.942;2022-08-21T14:57:54;38.40;34.50
69031;DHT22;56083;48.774;8.942;2022-08-21T15:00:23;38.60;34.10
69031;DHT22;56083;48.774;8.942;2022-08-21T15:02:50;39.20;33.30
69031;DHT22;56083;48.774;8.942;2022-08-21T15:05:16;38.40;33.70
69031;DHT22;56083;48.774;8.942;2022-08-21T15:07:41;39.30;33.80
69031;DHT22;56083;48.774;8.942;2022-08-21T15:10:09;38.80;33.40
69031;DHT22;56083;48.774;8.942;2022-08-21T15:12:41;36.90;34.80
69031;DHT22;56083;48.774;8.942;2022-08-21T15:15:07;35.70;37.00
69031;DHT22;56083;48.774;8.942;2022-08-21T15:17:35;34.30;39.10
69031;DHT22;56083;48.774;8.942;2022-08-21T15:20:02;34.50;39.20
69031;DHT22;56083;48.774;8.942;2022-08-21T15:22:29;35.80;38.40
69031;DHT22;56083;48.774;8.942;2022-08-21T15:24:56;36.90;36.20
69031;DHT22;56083;48.774;8.942;2022-08-21T15:27:21;38.00;35.10
69031;DHT22;56083;48.774;8.942;2022-08-21T15:29:47;38.90;33.20
69031;DHT22;56083;48.774;8.942;2022-08-21T15:32:19;39.40;33.20
69031;DHT22;56083;48.774;8.942;2022-08-21T15:34:46;39.30;33.30
69031;DHT22;56083;48.774;8.942;2022-08-21T15:37:12;39.60;32.50
69031;DHT22;56083;48.774;8.942;2022-08-21T15:39:38;38.90;33.00
69031;DHT22;56083;48.774;8.942;2022-08-21T15:42:04;39.30;33.10
69031;DHT22;56083;48.774;8.942;2022-08-21T15:44:30;39.30;33.10
69031;DHT22;56083;48.774;8.942;2022-08-21T15:46:56;39.70;32.20
69031;DHT22;56083;48.774;8.942;2022-08-21T15:49:23;39.80;32.50
69031;DHT22;56083;48.774;8.942;2022-08-21T15:51:48;39.60;32.10
69031;DHT22;56083;48.774;8.942;2022-08-21T15:54:17;39.90;31.40
69031;DHT22;56083;48.774;8.942;2022-08-21T15:56:46;39.40;31.80
69031;DHT22;56083;48.774;8.942;2022-08-21T15:59:16;38.80;32.90
69031;DHT22;56083;48.774;8.942;2022-08-21T16:01:42;38.50;33.40
69031;DHT22;56083;48.774;8.942;2022-08-21T16:04:09;38.10;34.00
69031;DHT22;56083;48.774;8.942;2022-08-21T16:06:43;37.80;34.70
69031;DHT22;56083;48.774;8.942;2022-08-21T16:09:11;38.10;34.60
69031;DHT22;56083;48.774;8.942;2022-08-21T16:11:41;37.60;33.80
69031;DHT22;56083;48.774;8.942;2022-08-21T16:14:07;37.80;34.70
69031;DHT22;56083;48.774;8.942;2022-08-21T16:16:34;37.70;34.30
69031;DHT22;56083;48.774;8.942;2022-08-21T16:19:02;37.60;34.50
69031;DHT22;56083;48.774;8.942;2022-08-21T16:21:29;37.50;35.10
69031;DHT22;56083;48.774;8.942;2022-08-21T16:23:55;37.10;34.90
69031;DHT22;56083;48.774;8.942;2022-08-21T16:26:21;36.60;35.50
69031;DHT22;56083;48.774;8.942;2022-08-21T16:28:52;36.70;36.10
69031;DHT22;56083;48.774;8.942;2022-08-21T16:31:19;36.40;36.00
69031;DHT22;56083;48.774;8.942;2022-08-21T16:33:49;36.70;35.60
69031;DHT22;56083;48.774;8.942;2022-08-21T16:36:16;36.50;35.50
69031;DHT22;56083;48.774;8.942;2022-08-21T16:38:42;36.80;35.20
69031;DHT22;56083;48.774;8.942;2022-08-21T16:41:12;36.30;35.90
69031;DHT22;56083;48.774;8.942;2022-08-21T16:43:39;36.30;36.40
69031;DHT22;56083;48.774;8.942;2022-08-21T16:46:06;36.10;36.70
69031;DHT22;56083;48.774;8.942;2022-08-21T16:48:33;35.80;36.90
69031;DHT22;56083;48.774;8.942;2022-08-21T16:50:59;35.90;37.20
69031;DHT22;56083;48.774;8.942;2022-08-21T16:53:24;35.50;37.00
69031;DHT22;56083;48.774;8.942;2022-08-21T16:55:51;34.80;37.80
69031;DHT22;56083;48.774;8.942;2022-08-21T16:58:26;34.30;38.80
69031;DHT22;56083;48.774;8.942;2022-08-21T17:00:54;33.40;39.80